createdAt,value
2023-04-07T00:00:55.988Z,68.47
2023-04-07T00:03:23.941Z,73.17
2023-04-07T00:05:51.295Z,69.40
2023-04-07T00:08:18.446Z,52.00
2023-04-07T00:10:45.970Z,34.43
2023-04-07T00:13:13.072Z,46.77
2023-04-07T00:15:40.286Z,46.10
2023-04-07T00:18:07.472Z,32.20
2023-04-07T00:20:34.710Z,29.00
2023-04-07T00:23:01.848Z,30.50
2023-04-07T00:25:28.917Z,24.50
2023-04-07T00:27:56.135Z,29.37
2023-04-07T00:30:23.492Z,29.00
2023-04-07T00:32:52.037Z,30.67
2023-04-07T00:35:19.438Z,26.83
2023-04-07T00:37:47.432Z,31.20
2023-04-07T00:40:14.773Z,33.07
2023-04-07T00:42:42.146Z,37.97
2023-04-07T00:45:10.990Z,17.67
2023-04-07T00:47:38.657Z,35.77
2023-04-07T00:50:06.483Z,30.23
2023-04-07T00:52:34.371Z,36.60
2023-04-07T00:55:01.897Z,41.97
2023-04-07T00:57:29.071Z,38.53
2023-04-07T00:59:56.756Z,44.87
2023-04-07T01:02:37.372Z,44.33
2023-04-07T01:05:15.949Z,51.30
2023-04-07T01:08:04.535Z,59.13
2023-04-07T01:10:44.199Z,53.23
2023-04-07T01:13:42.873Z,51.67
2023-04-07T01:16:31.609Z,62.30
2023-04-07T01:19:11.982Z,54.07
2023-04-07T01:21:42.215Z,58.90
2023-04-07T01:24:48.311Z,44.97
2023-04-07T01:27:48.945Z,58.27
2023-04-07T01:30:17.280Z,55.17
2023-04-07T01:32:47.396Z,60.53
2023-04-07T01:35:15.362Z,39.90
2023-04-07T01:37:45.952Z,59.60
2023-04-07T01:40:13.612Z,44.53
2023-04-07T01:42:43.184Z,35.63
2023-04-07T01:45:11.008Z,41.00
2023-04-07T01:47:39.735Z,33.23
2023-04-07T01:50:11.426Z,37.30
2023-04-07T01:52:40.488Z,27.93
2023-04-07T01:55:08.384Z,23.50
2023-04-07T01:57:39.181Z,25.60
2023-04-07T02:00:13.274Z,19.47
2023-04-07T02:02:48.806Z,17.97
2023-04-07T02:05:20.825Z,20.73
2023-04-07T02:08:01.893Z,18.83
2023-04-07T02:10:30.429Z,20.00
2023-04-07T02:13:02.151Z,25.43
2023-04-07T02:15:32.408Z,21.07
2023-04-07T02:18:01.640Z,22.10
2023-04-07T02:20:30.279Z,19.83
2023-04-07T02:22:58.159Z,21.63
2023-04-07T02:25:29.194Z,29.83
2023-04-07T02:27:58.958Z,26.53
2023-04-07T02:30:26.634Z,26.93
2023-04-07T02:32:54.268Z,29.77
2023-04-07T02:35:21.658Z,29.23
2023-04-07T02:37:49.071Z,36.47
2023-04-07T02:40:16.689Z,24.10
2023-04-07T02:42:44.253Z,29.37
2023-04-07T02:45:11.914Z,29.17
2023-04-07T02:47:40.289Z,27.73
2023-04-07T02:50:08.015Z,31.53
2023-04-07T02:52:36.204Z,25.33
2023-04-07T02:55:09.087Z,24.83
2023-04-07T02:57:36.383Z,22.53
2023-04-07T03:00:07.454Z,27.20
2023-04-07T03:05:22.414Z,30.83
2023-04-07T03:07:49.618Z,30.60
2023-04-07T03:10:17.044Z,23.33
2023-04-07T03:12:44.659Z,27.63
2023-04-07T03:15:12.150Z,31.87
2023-04-07T03:17:42.494Z,23.93
2023-04-07T03:20:10.894Z,27.13
2023-04-07T03:22:38.531Z,28.00
2023-04-07T03:25:10.202Z,27.80
2023-04-07T03:27:37.349Z,31.93
2023-04-07T03:30:06.731Z,27.10
2023-04-07T03:32:33.851Z,28.53
2023-04-07T03:35:01.198Z,21.63
2023-04-07T03:37:28.286Z,25.43
2023-04-07T03:39:55.849Z,32.00
2023-04-07T03:42:26.726Z,32.40
2023-04-07T03:45:00.161Z,30.43
2023-04-07T03:47:27.526Z,35.37
2023-04-07T03:49:59.781Z,28.07
2023-04-07T03:52:28.197Z,24.83
2023-04-07T03:55:02.240Z,24.83
2023-04-07T03:57:32.231Z,23.30
2023-04-07T03:59:59.539Z,23.87
2023-04-07T04:02:31.504Z,23.07
2023-04-07T04:04:59.511Z,29.33
2023-04-07T04:07:27.665Z,27.57
2023-04-07T04:10:00.268Z,20.33
2023-04-07T04:12:29.083Z,21.43
2023-04-07T04:15:05.288Z,21.65
2023-04-07T04:17:32.794Z,25.13
2023-04-07T04:20:00.070Z,23.33
2023-04-07T04:22:41.512Z,21.60
2023-04-07T04:25:09.237Z,25.07
2023-04-07T04:27:37.192Z,24.93
2023-04-07T04:30:11.426Z,28.27
2023-04-07T04:32:49.954Z,26.27
2023-04-07T04:35:21.119Z,26.60
2023-04-07T04:38:01.461Z,25.70
2023-04-07T04:40:28.638Z,26.27
2023-04-07T04:42:56.099Z,29.97
2023-04-07T04:45:24.580Z,19.90
2023-04-07T04:47:51.909Z,23.23
2023-04-07T04:50:19.258Z,23.33
2023-04-07T04:52:47.290Z,23.87
2023-04-07T04:55:21.599Z,32.83
2023-04-07T04:57:49.200Z,25.80
2023-04-07T05:00:22.364Z,27.57
2023-04-07T05:02:55.710Z,25.70
2023-04-07T05:05:23.535Z,29.73
2023-04-07T05:07:52.480Z,37.20
2023-04-07T05:10:20.790Z,33.90
2023-04-07T05:12:51.221Z,31.27
2023-04-07T05:15:18.510Z,34.63
2023-04-07T05:17:50.843Z,30.40
2023-04-07T05:20:23.418Z,38.17
2023-04-07T05:22:50.803Z,33.00
2023-04-07T05:25:20.088Z,37.57
2023-04-07T05:27:50.876Z,31.90
2023-04-07T05:30:18.768Z,27.30
2023-04-07T05:32:46.281Z,34.87
2023-04-07T05:35:22.921Z,26.50
2023-04-07T05:37:55.173Z,26.57
2023-04-07T05:40:22.471Z,33.67
2023-04-07T05:42:50.617Z,28.70
2023-04-07T05:45:17.819Z,23.40
2023-04-07T05:47:51.047Z,29.13
2023-04-07T05:50:24.857Z,27.50
2023-04-07T05:52:52.106Z,27.60
2023-04-07T05:55:23.389Z,30.10
2023-04-07T05:57:51.954Z,31.07
2023-04-07T06:00:22.279Z,26.20
2023-04-07T06:02:59.997Z,29.80
2023-04-07T06:05:28.005Z,28.30
2023-04-07T06:07:56.777Z,34.90
2023-04-07T06:10:27.048Z,29.03
2023-04-07T06:12:54.197Z,29.77
2023-04-07T06:15:21.574Z,42.53
2023-04-07T06:17:48.769Z,34.03
2023-04-07T06:20:15.961Z,36.87
2023-04-07T06:22:43.616Z,24.83
2023-04-07T06:25:10.971Z,25.93
2023-04-07T06:27:38.100Z,27.07
2023-04-07T06:30:06.015Z,18.47
2023-04-07T06:32:33.810Z,23.10
2023-04-07T06:35:01.952Z,25.90
2023-04-07T06:37:29.337Z,23.87
2023-04-07T06:39:56.647Z,41.87
2023-04-07T06:42:23.781Z,20.27
2023-04-07T06:45:00.229Z,23.13
2023-04-07T06:47:27.349Z,34.23
2023-04-07T06:49:54.442Z,24.33
2023-04-07T06:52:22.003Z,24.23
2023-04-07T06:54:49.088Z,23.90
2023-04-07T06:57:16.195Z,24.60
2023-04-07T06:59:43.310Z,24.33
2023-04-07T07:02:10.683Z,23.90
2023-04-07T07:04:38.184Z,24.10
2023-04-07T07:07:05.342Z,23.60
2023-04-07T07:09:32.466Z,28.03
2023-04-07T07:11:59.559Z,24.77
2023-04-07T07:14:26.656Z,23.50
2023-04-07T07:16:53.743Z,19.00
2023-04-07T07:19:20.950Z,22.52
2023-04-07T07:21:48.199Z,23.55
2023-04-07T07:24:15.710Z,25.77
2023-04-07T07:26:44.176Z,30.55
2023-04-07T07:29:11.928Z,22.55
2023-04-07T07:31:39.040Z,20.58
2023-04-07T07:34:06.171Z,16.75
2023-04-07T07:36:33.330Z,21.55
2023-04-07T07:39:00.835Z,21.77
2023-04-07T07:41:27.915Z,19.55
2023-04-07T07:43:55.081Z,20.95
2023-04-07T07:46:24.071Z,15.45
2023-04-07T07:48:51.227Z,15.13
2023-04-07T07:51:18.700Z,18.80
2023-04-07T07:53:46.718Z,15.23
2023-04-07T07:56:14.313Z,16.73
2023-04-07T07:58:41.890Z,15.07
2023-04-07T08:01:09.075Z,12.85
2023-04-07T08:03:36.331Z,11.23
2023-04-07T08:06:03.632Z,15.27
2023-04-07T08:08:30.725Z,14.88
2023-04-07T08:10:57.907Z,15.98
2023-04-07T08:13:24.973Z,15.10
2023-04-07T08:15:52.134Z,13.38
2023-04-07T08:18:19.314Z,11.60
2023-04-07T08:20:46.984Z,18.02
2023-04-07T08:23:14.082Z,12.20
2023-04-07T08:25:41.309Z,12.77
2023-04-07T08:28:08.922Z,12.80
2023-04-07T08:30:36.733Z,11.32
2023-04-07T08:33:07.163Z,12.77
2023-04-07T08:35:35.165Z,8.95
2023-04-07T08:38:03.856Z,10.88
2023-04-07T08:40:32.838Z,11.18
2023-04-07T08:43:01.980Z,11.65
2023-04-07T08:45:32.179Z,12.50
2023-04-07T08:48:04.684Z,12.73
2023-04-07T08:50:33.003Z,12.65
2023-04-07T08:53:07.465Z,10.35
2023-04-07T08:55:36.364Z,12.57
2023-04-07T08:58:04.601Z,11.73
2023-04-07T09:00:32.996Z,13.75
2023-04-07T09:03:01.284Z,13.20
2023-04-07T09:05:31.224Z,11.98
2023-04-07T09:07:58.476Z,11.55
2023-04-07T09:10:25.836Z,8.75
2023-04-07T09:12:52.927Z,14.32
2023-04-07T09:15:22.593Z,9.68
2023-04-07T09:17:49.925Z,14.18
2023-04-07T09:20:18.106Z,11.90
2023-04-07T09:22:48.624Z,12.48
2023-04-07T09:25:20.028Z,13.02
2023-04-07T09:28:02.127Z,13.30
2023-04-07T09:30:31.526Z,8.80
2023-04-07T09:32:59.974Z,14.02
2023-04-07T09:35:29.162Z,8.48
2023-04-07T09:38:07.189Z,11.90
2023-04-07T09:40:36.135Z,10.63
2023-04-07T09:43:04.714Z,12.00
2023-04-07T09:45:35.800Z,11.02
2023-04-07T09:48:20.934Z,12.05
2023-04-07T09:50:52.293Z,10.43
2023-04-07T09:53:20.725Z,9.80
2023-04-07T09:55:49.154Z,7.85
2023-04-07T09:58:17.160Z,13.45
2023-04-07T10:00:46.198Z,7.57
2023-04-07T10:03:14.332Z,11.50
2023-04-07T10:05:41.812Z,8.82
2023-04-07T10:08:10.601Z,9.43
2023-04-07T10:10:43.487Z,7.75
2023-04-07T10:13:12.803Z,9.45
2023-04-07T10:15:40.299Z,8.25
2023-04-07T10:18:09.264Z,8.57
2023-04-07T10:20:43.661Z,8.93
2023-04-07T10:23:44.195Z,7.18
2023-04-07T10:26:13.203Z,8.70
2023-04-07T10:28:42.819Z,7.03
2023-04-07T10:31:11.030Z,6.72
2023-04-07T10:33:50.143Z,7.38
2023-04-07T10:36:20.701Z,10.27
2023-04-07T10:39:09.636Z,12.02
2023-04-07T10:41:38.622Z,7.38
2023-04-07T10:44:07.135Z,8.05
2023-04-07T10:46:46.364Z,9.85
2023-04-07T10:49:17.003Z,9.18
2023-04-07T10:52:13.096Z,9.52
2023-04-07T10:54:41.147Z,9.80
2023-04-07T10:57:13.966Z,8.63
2023-04-07T11:00:12.807Z,9.82
2023-04-07T11:02:41.594Z,11.63
2023-04-07T11:05:09.183Z,7.20
2023-04-07T11:08:07.555Z,7.82
2023-04-07T11:10:36.100Z,6.93
2023-04-07T11:13:09.878Z,9.50
2023-04-07T11:15:40.423Z,11.10
2023-04-07T11:18:19.632Z,8.38
2023-04-07T11:20:56.016Z,9.68
2023-04-07T11:23:25.770Z,9.18
2023-04-07T11:26:03.127Z,14.80
2023-04-07T11:28:31.478Z,6.50
2023-04-07T11:31:00.538Z,7.93
2023-04-07T11:33:30.536Z,10.65
2023-04-07T11:36:00.276Z,12.05
2023-04-07T11:38:38.853Z,6.72
2023-04-07T11:41:14.502Z,7.88
2023-04-07T11:43:42.685Z,7.28
2023-04-07T11:46:15.507Z,8.35
2023-04-07T11:48:44.879Z,7.93
2023-04-07T11:51:26.681Z,9.77
2023-04-07T11:53:57.754Z,8.52
2023-04-07T11:56:25.327Z,6.97
2023-04-07T11:58:54.304Z,9.02
2023-04-07T12:01:25.049Z,7.70
2023-04-07T12:04:04.335Z,9.77
2023-04-07T12:06:35.505Z,7.90
2023-04-07T12:09:07.758Z,7.18
2023-04-07T12:11:36.874Z,12.48
2023-04-07T12:14:05.575Z,13.68
2023-04-07T12:16:33.526Z,11.75
2023-04-07T12:19:00.612Z,7.00
2023-04-07T12:21:27.941Z,6.55
2023-04-07T12:23:55.239Z,7.90
2023-04-07T12:26:23.544Z,7.05
2023-04-07T12:28:50.691Z,7.28
2023-04-07T12:31:18.493Z,5.95
2023-04-07T12:33:45.734Z,10.15
2023-04-07T12:36:13.268Z,9.32
2023-04-07T12:38:40.767Z,7.90
2023-04-07T12:41:08.871Z,7.10
2023-04-07T12:43:36.241Z,8.43
2023-04-07T12:46:04.292Z,11.48
2023-04-07T12:48:31.402Z,5.95
2023-04-07T12:50:58.769Z,15.80
2023-04-07T12:53:26.213Z,11.98
2023-04-07T12:55:53.815Z,9.05
2023-04-07T12:58:20.907Z,10.15
2023-04-07T13:00:49.172Z,8.75
2023-04-07T13:03:16.442Z,9.32
2023-04-07T13:05:43.979Z,9.52
2023-04-07T13:08:11.444Z,8.57
2023-04-07T13:10:39.561Z,14.82
2023-04-07T13:13:06.661Z,8.50
2023-04-07T13:15:34.549Z,7.47
2023-04-07T13:18:01.651Z,7.30
2023-04-07T13:20:30.651Z,7.20
2023-04-07T13:23:07.448Z,8.00
2023-04-07T13:25:37.792Z,7.75
2023-04-07T13:28:05.471Z,8.80
2023-04-07T13:30:33.396Z,7.85
2023-04-07T13:33:00.640Z,7.97
2023-04-07T13:35:30.790Z,12.13
2023-04-07T13:37:57.841Z,7.38
2023-04-07T13:40:25.849Z,5.75
2023-04-07T13:42:53.397Z,6.70
2023-04-07T13:45:21.290Z,9.82
2023-04-07T13:47:48.454Z,9.20
2023-04-07T13:50:16.562Z,12.60
2023-04-07T13:52:43.585Z,7.63
2023-04-07T13:55:11.944Z,6.68
2023-04-07T13:57:39.258Z,8.82
2023-04-07T14:00:07.745Z,9.18
2023-04-07T14:02:36.061Z,8.65
2023-04-07T14:05:04.002Z,7.80
2023-04-07T14:07:31.368Z,6.50
2023-04-07T14:09:58.830Z,6.80
2023-04-07T14:12:26.153Z,9.93
2023-04-07T14:14:55.110Z,8.10
2023-04-07T14:17:22.432Z,8.07
2023-04-07T14:19:49.622Z,12.23
2023-04-07T14:22:16.801Z,9.93
2023-04-07T14:24:44.069Z,11.23
2023-04-07T14:27:11.413Z,13.20
2023-04-07T14:29:38.508Z,9.52
2023-04-07T14:32:05.729Z,10.90
2023-04-07T14:34:32.876Z,9.80
2023-04-07T14:37:00.345Z,14.45
2023-04-07T14:39:27.587Z,31.13
2023-04-07T14:41:54.842Z,8.35
2023-04-07T14:44:22.444Z,17.77
2023-04-07T14:46:49.748Z,10.50
2023-04-07T14:49:17.020Z,15.70
2023-04-07T14:51:44.918Z,18.00
2023-04-07T14:54:12.005Z,15.05
2023-04-07T14:56:39.103Z,18.75
2023-04-07T14:59:06.248Z,17.73
2023-04-07T15:01:33.528Z,24.35
2023-04-07T15:04:01.240Z,19.55
2023-04-07T15:06:28.384Z,14.43
2023-04-07T15:08:55.628Z,27.33
2023-04-07T15:11:22.755Z,13.90
2023-04-07T15:13:50.368Z,19.50
2023-04-07T15:16:18.034Z,32.45
2023-04-07T15:18:47.429Z,15.05
2023-04-07T15:21:15.414Z,27.88
2023-04-07T15:23:42.873Z,18.60
2023-04-07T15:26:10.665Z,24.67
2023-04-07T15:28:38.397Z,11.38
2023-04-07T15:31:09.101Z,14.63
2023-04-07T15:33:37.633Z,19.20
2023-04-07T15:36:05.775Z,11.88
2023-04-07T15:38:33.050Z,16.15
2023-04-07T15:41:00.189Z,9.35
2023-04-07T15:43:27.377Z,21.05
2023-04-07T15:45:55.613Z,20.85
2023-04-07T15:48:22.717Z,16.50
2023-04-07T15:50:49.928Z,19.42
2023-04-07T15:53:17.206Z,13.27
2023-04-07T15:55:44.592Z,10.25
2023-04-07T15:58:11.845Z,7.95
2023-04-07T16:00:40.190Z,13.02
2023-04-07T16:03:07.492Z,17.27
2023-04-07T16:05:34.815Z,23.13
2023-04-07T16:08:01.970Z,7.97
2023-04-07T16:10:29.136Z,13.00
2023-04-07T16:12:56.273Z,10.77
2023-04-07T16:15:36.827Z,14.35
2023-04-07T16:18:09.024Z,10.50
2023-04-07T16:20:36.317Z,11.23
2023-04-07T16:23:03.427Z,11.77
2023-04-07T16:25:31.154Z,11.60
2023-04-07T16:27:58.422Z,19.85
2023-04-07T16:30:25.771Z,16.83
2023-04-07T16:32:52.932Z,17.10
2023-04-07T16:35:20.168Z,14.63
2023-04-07T16:37:47.471Z,11.57
2023-04-07T16:40:14.819Z,12.75
2023-04-07T16:42:42.096Z,21.20
2023-04-07T16:45:09.640Z,21.85
2023-04-07T16:47:38.456Z,20.75
2023-04-07T16:50:06.103Z,14.73
2023-04-07T16:52:33.405Z,20.02
2023-04-07T16:55:01.354Z,18.98
2023-04-07T16:57:28.496Z,22.45
2023-04-07T16:59:55.760Z,17.50
2023-04-07T17:02:23.268Z,14.45
2023-04-07T17:04:50.693Z,15.32
2023-04-07T17:07:19.395Z,18.73
2023-04-07T17:09:46.527Z,42.60
2023-04-07T17:12:14.013Z,15.95
2023-04-07T17:14:41.845Z,21.77
2023-04-07T17:17:08.992Z,16.10
2023-04-07T17:19:36.394Z,21.70
2023-04-07T17:22:03.601Z,14.52
2023-04-07T17:24:30.861Z,13.57
2023-04-07T17:26:58.134Z,17.63
2023-04-07T17:29:30.384Z,15.82
2023-04-07T17:31:57.569Z,9.82
2023-04-07T17:34:24.824Z,11.38
2023-04-07T17:36:52.226Z,15.48
2023-04-07T17:39:19.436Z,18.38
2023-04-07T17:41:47.845Z,15.45
2023-04-07T17:44:15.291Z,14.73
2023-04-07T17:46:42.491Z,17.65
2023-04-07T17:49:09.659Z,20.67
2023-04-07T17:51:36.825Z,12.88
2023-04-07T17:54:04.110Z,18.02
2023-04-07T17:56:31.333Z,21.83
2023-04-07T17:58:58.415Z,24.58
2023-04-07T18:01:25.883Z,18.95
2023-04-07T18:03:53.866Z,22.27
2023-04-07T18:06:21.287Z,18.08
2023-04-07T18:08:48.802Z,21.08
2023-04-07T18:11:17.007Z,22.20
2023-04-07T18:13:44.203Z,20.92
2023-04-07T18:16:13.495Z,22.60
2023-04-07T18:18:40.794Z,18.58
2023-04-07T18:21:07.976Z,22.35
2023-04-07T18:23:35.266Z,20.38
2023-04-07T18:26:06.843Z,16.08
2023-04-07T18:28:34.696Z,14.57
2023-04-07T18:31:04.342Z,16.13
2023-04-07T18:33:33.321Z,22.10
2023-04-07T18:36:03.948Z,12.20
2023-04-07T18:38:31.224Z,17.00
2023-04-07T18:40:58.535Z,13.70
2023-04-07T18:43:28.246Z,19.20
2023-04-07T18:45:55.418Z,16.02
2023-04-07T18:48:22.533Z,20.17
2023-04-07T18:50:52.413Z,14.00
2023-04-07T18:53:21.033Z,16.40
2023-04-07T18:55:48.814Z,19.20
2023-04-07T18:58:16.272Z,16.02
2023-04-07T19:00:44.340Z,13.40
2023-04-07T19:03:12.127Z,16.65
2023-04-07T19:05:42.658Z,18.90
2023-04-07T19:08:10.151Z,21.17
2023-04-07T19:10:37.309Z,17.67
2023-04-07T19:13:04.891Z,18.15
2023-04-07T19:15:41.017Z,20.80
2023-04-07T19:18:11.542Z,25.35
2023-04-07T19:20:38.899Z,23.00
2023-04-07T19:23:06.465Z,19.52
2023-04-07T19:25:33.710Z,16.13
2023-04-07T19:28:01.725Z,19.55
2023-04-07T19:30:28.908Z,20.30
2023-04-07T19:32:57.013Z,17.25
2023-04-07T19:35:24.231Z,21.45
2023-04-07T19:37:52.646Z,22.95
2023-04-07T19:40:20.115Z,17.23
2023-04-07T19:42:47.397Z,20.98
2023-04-07T19:45:14.514Z,16.55
2023-04-07T19:47:42.673Z,19.00
2023-04-07T19:50:12.010Z,17.00
2023-04-07T19:52:39.282Z,14.05
2023-04-07T19:55:07.895Z,15.98
2023-04-07T19:57:36.228Z,20.55
2023-04-07T20:00:04.663Z,19.33
2023-04-07T20:02:31.915Z,17.58
2023-04-07T20:04:59.229Z,14.25
2023-04-07T20:07:26.702Z,21.60
2023-04-07T20:09:57.628Z,25.00
2023-04-07T20:12:25.052Z,15.65
2023-04-07T20:14:52.114Z,15.88
2023-04-07T20:17:20.351Z,11.75
2023-04-07T20:19:48.229Z,17.23
2023-04-07T20:22:15.364Z,15.27
2023-04-07T20:24:42.485Z,16.60
2023-04-07T20:27:09.628Z,15.20
2023-04-07T20:29:37.005Z,16.60
2023-04-07T20:32:04.070Z,17.23
2023-04-07T20:34:31.407Z,14.02
2023-04-07T20:36:58.590Z,17.50
2023-04-07T20:39:25.816Z,11.57
2023-04-07T20:41:52.914Z,12.57
2023-04-07T20:44:20.325Z,12.15
2023-04-07T20:46:47.643Z,18.73
2023-04-07T20:49:15.043Z,12.98
2023-04-07T20:51:42.249Z,17.02
2023-04-07T20:54:09.331Z,15.50
2023-04-07T20:56:37.184Z,17.55
2023-04-07T20:59:04.260Z,20.13
2023-04-07T21:01:31.791Z,14.57
2023-04-07T21:04:01.168Z,17.55
2023-04-07T21:06:28.330Z,15.85
2023-04-07T21:08:55.491Z,16.85
2023-04-07T21:11:22.744Z,16.75
2023-04-07T21:13:49.885Z,15.35
2023-04-07T21:16:17.140Z,15.48
2023-04-07T21:18:44.678Z,14.77
2023-04-07T21:21:11.829Z,18.45
2023-04-07T21:23:38.966Z,15.60
2023-04-07T21:26:06.336Z,15.98
2023-04-07T21:28:36.425Z,17.50
2023-04-07T21:31:04.710Z,18.52
2023-04-07T21:33:32.081Z,26.60
2023-04-07T21:36:04.047Z,18.55
2023-04-07T21:38:31.830Z,21.48
2023-04-07T21:40:59.483Z,24.60
2023-04-07T21:43:29.229Z,25.88
2023-04-07T21:45:56.499Z,23.08
2023-04-07T21:48:24.123Z,20.75
2023-04-07T21:50:52.473Z,27.17
2023-04-07T21:53:19.717Z,26.42
2023-04-07T21:55:46.854Z,30.33
2023-04-07T21:58:14.005Z,31.15
2023-04-07T22:00:41.248Z,34.22
2023-04-07T22:03:08.696Z,28.65
2023-04-07T22:05:36.049Z,33.80
2023-04-07T22:08:03.567Z,30.05
2023-04-07T22:10:31.372Z,32.00
2023-04-07T22:12:58.593Z,30.98
2023-04-07T22:15:25.751Z,33.42
2023-04-07T22:17:53.057Z,23.70
2023-04-07T22:20:20.258Z,23.65
2023-04-07T22:22:47.507Z,30.88
2023-04-07T22:25:14.671Z,31.25
2023-04-07T22:27:41.773Z,24.77
2023-04-07T22:30:10.309Z,27.17
2023-04-07T22:32:37.807Z,32.78
2023-04-07T22:35:05.333Z,33.40
2023-04-07T22:37:32.469Z,27.45
2023-04-07T22:39:59.581Z,41.28
2023-04-07T22:42:26.693Z,32.45
2023-04-07T22:44:54.060Z,25.85
2023-04-07T22:47:22.649Z,24.92
2023-04-07T22:49:49.959Z,29.77
2023-04-07T22:52:17.161Z,31.13
2023-04-07T22:54:44.289Z,29.40
2023-04-07T22:57:11.711Z,32.40
2023-04-07T22:59:38.816Z,34.22
2023-04-07T23:02:06.601Z,40.95
2023-04-07T23:04:33.826Z,44.63
2023-04-07T23:07:01.571Z,45.70
2023-04-07T23:09:30.697Z,37.88
2023-04-07T23:11:58.244Z,47.30
2023-04-07T23:14:25.407Z,50.03
2023-04-07T23:16:54.680Z,40.97
2023-04-07T23:19:22.328Z,41.40
2023-04-07T23:21:49.779Z,39.50
2023-04-07T23:24:16.920Z,32.45
2023-04-07T23:26:44.015Z,38.00
2023-04-07T23:29:11.342Z,59.70
2023-04-07T23:31:38.466Z,71.68
2023-04-07T23:34:05.584Z,85.18
2023-04-07T23:36:33.447Z,46.80
2023-04-07T23:39:02.344Z,48.78
2023-04-07T23:41:29.557Z,51.60
2023-04-07T23:43:57.467Z,59.80
2023-04-07T23:46:24.787Z,53.22
2023-04-07T23:48:52.196Z,30.50
2023-04-07T23:51:19.892Z,26.77
2023-04-07T23:53:47.214Z,28.67
2023-04-07T23:56:14.366Z,35.45
2023-04-07T23:58:41.600Z,29.70
